Time;durP1;ratioP1;P1;durP2;ratioP2;P2;SDS_P1;SDS_P2;PMS_P1;PMS_P2;Temp;Humidity;BMP_temperature;BMP_pressure;BME280_temperature;BME280_humidity;BME280_pressure;Samples;Min_cycle;Max_cycle;Signal;HPM_P1;HPM_P2
2021/09/06 00:01:42;;;;;;;5.75;3.72;;;7.60;93.50;;;;;;5093143;28;20039;-75
2021/09/06 00:04:07;;;;;;;5.03;3.25;;;7.60;93.30;;;;;;5093330;28;20040;-77
2021/09/06 00:06:38;;;;;;;7.85;3.30;;;7.60;93.30;;;;;;5093355;28;20113;-76
2021/09/06 00:09:04;;;;;;;4.70;2.88;;;7.70;93.20;;;;;;5093116;28;20069;-75
2021/09/06 00:11:30;;;;;;;3.83;3.03;;;7.70;93.00;;;;;;5093196;28;20532;-76
2021/09/06 00:13:56;;;;;;;4.63;3.05;;;7.70;92.90;;;;;;5080583;28;20067;-75
2021/09/06 00:16:22;;;;;;;5.78;2.95;;;7.70;92.90;;;;;;5073559;28;20048;-76
2021/09/06 00:18:47;;;;;;;4.72;3.22;;;7.70;92.70;;;;;;5077486;28;20028;-77
2021/09/06 00:21:14;;;;;;;4.03;2.78;;;7.70;92.70;;;;;;5092694;28;20546;-78
2021/09/06 00:23:40;;;;;;;7.15;3.45;;;7.70;92.80;;;;;;5091322;28;20500;-77
2021/09/06 00:26:06;;;;;;;4.90;3.13;;;7.70;92.70;;;;;;5092775;28;20013;-76
2021/09/06 00:28:32;;;;;;;6.07;3.47;;;7.70;92.60;;;;;;5084093;28;20012;-76
2021/09/06 00:30:57;;;;;;;3.90;3.15;;;7.70;92.60;;;;;;5092588;28;20142;-77
2021/09/06 00:33:23;;;;;;;3.15;2.60;;;7.70;92.50;;;;;;5092877;28;20020;-78
2021/09/06 00:35:49;;;;;;;5.00;2.95;;;7.70;92.60;;;;;;5092502;28;20032;-76
2021/09/06 00:38:17;;;;;;;3.03;2.60;;;7.70;92.50;;;;;;5092720;28;20016;-78
2021/09/06 00:40:44;;;;;;;3.83;2.90;;;7.70;92.30;;;;;;5093146;28;20024;-77
2021/09/06 00:43:10;;;;;;;6.15;3.03;;;7.70;92.20;;;;;;5087987;28;20037;-76
2021/09/06 00:45:37;;;;;;;4.90;3.17;;;7.70;92.30;;;;;;5086638;28;20039;-76
2021/09/06 00:48:04;;;;;;;4.93;2.50;;;7.70;92.20;;;;;;5092529;28;20044;-76
2021/09/06 00:50:30;;;;;;;3.78;2.50;;;7.70;92.10;;;;;;5092848;28;20064;-77
2021/09/06 00:52:56;;;;;;;4.18;2.85;;;7.70;92.10;;;;;;5092566;28;20024;-76
2021/09/06 00:55:23;;;;;;;2.85;2.33;;;7.70;92.10;;;;;;5092831;28;20016;-75
2021/09/06 00:57:50;;;;;;;5.03;2.78;;;7.60;92.00;;;;;;5091492;28;20073;-76
2021/09/06 01:00:17;;;;;;;4.18;2.72;;;7.70;92.10;;;;;;5092671;28;20439;-75
2021/09/06 01:02:44;;;;;;;4.15;2.42;;;7.60;92.10;;;;;;5092482;28;20031;-77
2021/09/06 01:05:11;;;;;;;4.30;2.65;;;7.50;92.10;;;;;;5092319;28;20412;-77
2021/09/06 01:07:37;;;;;;;3.42;2.45;;;7.40;92.20;;;;;;5092759;28;20035;-77
2021/09/06 01:10:06;;;;;;;3.60;2.42;;;7.30;92.40;;;;;;5092358;28;20481;-76
2021/09/06 01:12:32;;;;;;;4.30;3.08;;;7.20;92.50;;;;;;5092611;28;20031;-76
2021/09/06 01:14:58;;;;;;;4.07;2.50;;;7.20;92.70;;;;;;5092674;28;20035;-76
2021/09/06 01:17:24;;;;;;;6.93;2.88;;;7.20;92.80;;;;;;5092268;28;20028;-76
2021/09/06 01:19:50;;;;;;;3.30;2.08;;;7.10;92.80;;;;;;5091109;28;20123;-76
2021/09/06 01:22:18;;;;;;;3.83;2.38;;;7.20;92.80;;;;;;5092294;28;20401;-76
2021/09/06 01:24:44;;;;;;;4.68;2.45;;;7.10;92.80;;;;;;5092404;28;20538;-76
2021/09/06 01:27:11;;;;;;;3.30;1.67;;;7.10;92.70;;;;;;5092270;28;20032;-76
2021/09/06 01:29:37;;;;;;;2.88;1.90;;;7.10;92.60;;;;;;5092263;28;20016;-76
2021/09/06 01:32:06;;;;;;;5.20;3.05;;;7.10;92.60;;;;;;5092171;28;20093;-77
2021/09/06 01:34:32;;;;;;;4.10;2.22;;;7.20;92.60;;;;;;5091024;28;20016;-75
2021/09/06 01:36:58;;;;;;;3.65;2.53;;;7.20;92.80;;;;;;5092365;28;20031;-76
2021/09/06 01:39:24;;;;;;;2.17;1.80;;;7.20;92.40;;;;;;5092066;28;20020;-75
2021/09/06 01:41:50;;;;;;;3.88;2.67;;;7.20;92.30;;;;;;5092148;28;20032;-75
2021/09/06 01:44:16;;;;;;;4.32;2.28;;;7.20;92.30;;;;;;5092143;28;20043;-77
2021/09/06 01:46:42;;;;;;;3.53;2.53;;;7.20;92.40;;;;;;5092174;28;20039;-75
2021/09/06 01:49:07;;;;;;;7.20;2.25;;;7.10;92.40;;;;;;5094100;28;20027;-76
2021/09/06 01:51:33;;;;;;;3.90;2.35;;;7.10;92.50;;;;;;5096157;28;20109;-75
2021/09/06 01:53:59;;;;;;;3.65;2.78;;;7.00;92.70;;;;;;5094683;28;20074;-76
2021/09/06 01:56:25;;;;;;;6.35;3.20;;;6.90;93.00;;;;;;5096041;28;20023;-76
2021/09/06 01:58:51;;;;;;;4.10;2.88;;;6.80;93.60;;;;;;5096568;28;20035;-77
2021/09/06 02:01:17;;;;;;;8.18;3.30;;;6.70;93.60;;;;;;5095851;28;20031;-76
2021/09/06 02:03:43;;;;;;;6.38;2.83;;;6.70;93.80;;;;;;5095789;28;20020;-77
2021/09/06 02:06:10;;;;;;;7.28;3.03;;;6.60;94.00;;;;;;5096049;28;20107;-77
2021/09/06 02:08:35;;;;;;;5.57;2.97;;;6.50;94.10;;;;;;5096042;28;20012;-76
2021/09/06 02:11:02;;;;;;;3.38;2.78;;;6.50;94.30;;;;;;5095726;28;20055;-75
2021/09/06 02:13:28;;;;;;;6.25;2.92;;;6.40;94.50;;;;;;5095607;28;20073;-77
2021/09/06 02:15:54;;;;;;;3.97;2.33;;;6.40;94.70;;;;;;5095768;28;20376;-76
2021/09/06 02:18:20;;;;;;;3.90;2.55;;;6.40;94.90;;;;;;5094503;28;20389;-76
2021/09/06 02:20:46;;;;;;;8.98;3.17;;;6.40;95.20;;;;;;5095523;28;20039;-76
2021/09/06 02:23:12;;;;;;;4.15;2.33;;;6.40;94.90;;;;;;5095501;28;20024;-77
2021/09/06 02:25:38;;;;;;;3.67;2.42;;;6.50;95.00;;;;;;5095442;28;20420;-76
2021/09/06 02:28:04;;;;;;;3.47;2.58;;;6.40;95.00;;;;;;5096063;28;20032;-77
2021/09/06 02:30:30;;;;;;;6.57;3.00;;;6.40;95.10;;;;;;5095512;28;20128;-76
2021/09/06 02:32:55;;;;;;;5.05;2.45;;;6.40;95.10;;;;;;5095650;28;20488;-76
2021/09/06 02:35:21;;;;;;;5.90;3.03;;;6.40;95.20;;;;;;5095406;28;20016;-77
2021/09/06 02:37:47;;;;;;;3.97;2.97;;;6.50;95.20;;;;;;5095193;28;20119;-77
2021/09/06 02:40:14;;;;;;;3.90;2.63;;;6.50;95.20;;;;;;5095265;28;20027;-76
2021/09/06 02:42:40;;;;;;;2.97;2.10;;;6.50;95.20;;;;;;5095261;28;20330;-77
2021/09/06 02:45:07;;;;;;;3.63;2.65;;;6.40;95.20;;;;;;5095082;28;20024;-76
2021/09/06 02:47:36;;;;;;;3.67;2.45;;;6.40;95.30;;;;;;5094940;28;20412;-76
2021/09/06 02:50:02;;;;;;;3.30;2.60;;;6.40;95.50;;;;;;5093706;28;20040;-76
2021/09/06 02:52:29;;;;;;;4.38;2.38;;;6.40;95.60;;;;;;5094789;28;20089;-76
2021/09/06 02:54:55;;;;;;;9.38;3.08;;;6.40;95.70;;;;;;5094909;28;20032;-77
2021/09/06 02:57:21;;;;;;;5.50;2.80;;;6.40;95.70;;;;;;5093541;28;20031;-76
2021/09/06 02:59:54;;;;;;;7.05;2.60;;;6.30;95.60;;;;;;5093093;28;20024;-79
2021/09/06 03:02:20;;;;;;;7.85;5.63;;;6.30;95.70;;;;;;5094709;28;20074;-75
2021/09/06 03:04:46;;;;;;;4.55;3.00;;;6.30;95.80;;;;;;5094785;28;20028;-77
2021/09/06 03:07:12;;;;;;;4.63;2.60;;;6.30;95.80;;;;;;5094792;28;20024;-75
2021/09/06 03:09:38;;;;;;;3.95;2.65;;;6.20;95.90;;;;;;5094755;28;20031;-76
2021/09/06 03:12:04;;;;;;;4.45;3.03;;;6.20;96.00;;;;;;5094476;28;20085;-76
2021/09/06 03:14:30;;;;;;;3.63;2.20;;;6.20;96.10;;;;;;5094653;28;20016;-76
2021/09/06 03:16:55;;;;;;;4.85;2.40;;;6.20;96.20;;;;;;5094611;28;20145;-76
2021/09/06 03:19:21;;;;;;;4.05;2.95;;;6.40;96.30;;;;;;5094728;28;20138;-78
2021/09/06 03:21:47;;;;;;;6.07;2.50;;;6.40;96.20;;;;;;5094614;28;20032;-77
2021/09/06 03:24:15;;;;;;;5.35;3.58;;;6.50;96.20;;;;;;5094048;28;20016;-77
2021/09/06 03:26:41;;;;;;;4.75;2.50;;;6.50;96.00;;;;;;5092971;28;20166;-76
2021/09/06 03:29:07;;;;;;;4.80;2.92;;;6.60;95.90;;;;;;5094074;28;20012;-76
2021/09/06 03:31:33;;;;;;;4.22;3.28;;;6.60;95.80;;;;;;5094570;28;20501;-75
2021/09/06 03:34:02;;;;;;;4.30;2.72;;;6.70;95.70;;;;;;5094308;28;20107;-77
2021/09/06 03:36:28;;;;;;;2.97;2.67;;;6.70;95.60;;;;;;5094255;28;20051;-77
2021/09/06 03:38:55;;;;;;;3.28;2.58;;;6.80;95.50;;;;;;5093826;28;20465;-77
2021/09/06 03:41:22;;;;;;;7.05;4.55;;;6.80;95.40;;;;;;5094213;28;20028;-78
2021/09/06 03:43:48;;;;;;;4.90;3.30;;;6.90;95.40;;;;;;5094175;28;20102;-75
2021/09/06 03:46:14;;;;;;;4.10;2.97;;;6.90;95.30;;;;;;5094006;28;20020;-76
2021/09/06 03:48:40;;;;;;;6.18;3.50;;;7.00;95.50;;;;;;5094379;28;20503;-78
2021/09/06 03:51:06;;;;;;;4.65;2.70;;;7.00;95.10;;;;;;5094030;28;20016;-77
2021/09/06 03:53:31;;;;;;;5.28;2.38;;;7.10;94.90;;;;;;5094134;28;20534;-76
2021/09/06 03:55:57;;;;;;;7.30;2.75;;;7.20;94.80;;;;;;5093352;28;20027;-79
2021/09/06 03:58:23;;;;;;;5.90;3.08;;;7.20;95.00;;;;;;5093799;28;20103;-78
2021/09/06 04:00:49;;;;;;;5.13;2.53;;;7.30;94.60;;;;;;5093857;28;20373;-77
2021/09/06 04:03:15;;;;;;;6.75;3.42;;;7.30;94.50;;;;;;5093487;28;20100;-76
2021/09/06 04:05:41;;;;;;;4.25;2.97;;;7.40;94.40;;;;;;5093555;28;20056;-75
2021/09/06 04:08:07;;;;;;;4.97;1.90;;;7.40;94.20;;;;;;5093666;28;20078;-77
2021/09/06 04:10:33;;;;;;;5.35;2.90;;;7.50;93.90;;;;;;5092232;28;20054;-77
2021/09/06 04:12:59;;;;;;;5.72;3.42;;;7.50;93.90;;;;;;5093282;28;20449;-76
2021/09/06 04:15:26;;;;;;;7.60;3.10;;;7.60;94.00;;;;;;5092178;28;20016;-77
2021/09/06 04:17:51;;;;;;;5.13;1.88;;;7.60;93.90;;;;;;5093798;28;20485;-77
2021/09/06 04:20:17;;;;;;;4.07;2.30;;;7.80;94.10;;;;;;5093351;28;20032;-76
2021/09/06 04:22:43;;;;;;;3.55;2.47;;;8.10;94.00;;;;;;5093527;28;20046;-76
2021/09/06 04:25:10;;;;;;;3.28;2.25;;;8.60;93.30;;;;;;5083731;28;20055;-80
2021/09/06 04:27:36;;;;;;;3.20;2.20;;;9.00;92.30;;;;;;5079931;28;20020;-78
2021/09/06 04:30:04;;;;;;;5.90;2.92;;;9.40;91.20;;;;;;5091696;28;20100;-78
2021/09/06 04:32:30;;;;;;;5.60;2.30;;;9.80;90.70;;;;;;5092691;28;20016;-78
2021/09/06 04:34:55;;;;;;;4.35;2.53;;;10.50;88.60;;;;;;5093064;28;20501;-79
2021/09/06 04:37:21;;;;;;;4.70;2.58;;;11.10;85.00;;;;;;5092672;28;20024;-77
2021/09/06 04:39:47;;;;;;;5.28;2.95;;;11.70;82.40;;;;;;5093075;28;20039;-79
2021/09/06 04:42:13;;;;;;;7.15;2.60;;;12.10;79.30;;;;;;5092586;28;20055;-78
2021/09/06 04:44:39;;;;;;;5.03;2.85;;;12.60;77.80;;;;;;5091549;28;20016;-78
2021/09/06 04:47:05;;;;;;;2.97;2.28;;;13.10;75.60;;;;;;5091517;28;20085;-79
2021/09/06 04:49:31;;;;;;;6.00;3.53;;;13.60;73.00;;;;;;5092677;28;20035;-76
2021/09/06 04:52:03;;;;;;;6.18;3.10;;;13.60;70.90;;;;;;5092665;28;20552;-79
2021/09/06 04:54:29;;;;;;;3.53;2.72;;;12.90;71.30;;;;;;5092287;28;20020;-77
2021/09/06 04:56:55;;;;;;;5.22;3.00;;;12.30;72.90;;;;;;5091276;28;20031;-77
2021/09/06 04:59:23;;;;;;;5.20;2.47;;;11.60;74.40;;;;;;5092397;28;20039;-77
2021/09/06 05:01:49;;;;;;;3.35;2.35;;;11.00;76.10;;;;;;5092479;28;20059;-77
2021/09/06 05:04:15;;;;;;;4.38;2.60;;;10.40;77.90;;;;;;5086137;28;20477;-77
2021/09/06 05:06:41;;;;;;;5.63;3.00;;;9.90;79.80;;;;;;5092713;28;20031;-78
2021/09/06 05:09:07;;;;;;;4.43;2.42;;;9.60;81.40;;;;;;5092783;28;20096;-77
2021/09/06 05:11:33;;;;;;;4.45;2.75;;;9.20;82.60;;;;;;5092710;28;20123;-76
2021/09/06 05:13:59;;;;;;;4.85;3.05;;;9.00;83.90;;;;;;5092833;28;20098;-77
2021/09/06 05:16:26;;;;;;;3.58;2.47;;;9.30;85.50;;;;;;5080819;28;20035;-77
2021/09/06 05:18:52;;;;;;;3.65;2.70;;;9.50;83.20;;;;;;5090121;28;20473;-76
2021/09/06 05:21:18;;;;;;;4.63;2.72;;;9.40;83.20;;;;;;5090854;28;20036;-77
2021/09/06 05:23:44;;;;;;;3.90;2.65;;;9.20;83.50;;;;;;5091682;28;20016;-76
2021/09/06 05:26:10;;;;;;;4.05;2.65;;;9.00;84.00;;;;;;5092099;28;20123;-76
2021/09/06 05:28:36;;;;;;;3.40;1.88;;;8.80;84.50;;;;;;5092151;28;20073;-77
2021/09/06 05:31:03;;;;;;;4.20;3.13;;;8.70;84.90;;;;;;5092175;28;20095;-76
2021/09/06 05:33:29;;;;;;;4.57;2.47;;;8.60;85.40;;;;;;5092025;28;20020;-78
2021/09/06 05:35:55;;;;;;;5.75;3.10;;;8.60;86.00;;;;;;5091987;28;20024;-77
2021/09/06 05:38:21;;;;;;;5.97;3.10;;;8.50;86.30;;;;;;5091975;28;20023;-77
2021/09/06 05:40:47;;;;;;;6.85;2.50;;;8.50;86.50;;;;;;5090611;28;20397;-78
2021/09/06 05:43:13;;;;;;;3.83;2.70;;;8.50;86.20;;;;;;5090275;28;20031;-78
2021/09/06 05:45:39;;;;;;;6.85;2.58;;;8.60;86.30;;;;;;5091436;28;20027;-77
2021/09/06 05:48:04;;;;;;;7.65;2.90;;;8.60;86.10;;;;;;5092805;28;20020;-77
2021/09/06 05:50:31;;;;;;;7.00;2.60;;;8.60;86.10;;;;;;5088087;28;20355;-79
2021/09/06 05:52:56;;;;;;;4.22;2.38;;;8.70;85.70;;;;;;5090408;28;20023;-78
2021/09/06 05:55:22;;;;;;;5.95;2.78;;;8.70;85.30;;;;;;5090969;28;20032;-77
2021/09/06 05:57:48;;;;;;;5.68;3.10;;;8.80;85.20;;;;;;5092087;28;20478;-78
2021/09/06 06:00:14;;;;;;;5.00;2.65;;;8.90;85.20;;;;;;5092475;28;20107;-79
2021/09/06 06:02:40;;;;;;;6.13;2.90;;;9.70;85.80;;;;;;5092774;28;20384;-78
2021/09/06 06:05:06;;;;;;;4.63;2.55;;;11.50;82.60;;;;;;5091226;28;20031;-80
2021/09/06 06:07:33;;;;;;;4.38;2.42;;;13.60;75.00;;;;;;5092316;28;20048;-77
2021/09/06 06:09:59;;;;;;;7.40;2.72;;;15.80;68.50;;;;;;5092829;28;20024;-77
2021/09/06 06:12:28;;;;;;;4.13;2.67;;;17.50;61.00;;;;;;5093865;28;20416;-76
2021/09/06 06:14:55;;;;;;;5.55;2.50;;;19.00;55.00;;;;;;5091359;28;20024;-76
2021/09/06 06:17:21;;;;;;;5.43;2.65;;;19.80;51.60;;;;;;5091782;28;20023;-77
2021/09/06 06:19:47;;;;;;;3.58;3.00;;;20.80;49.80;;;;;;5092347;28;20028;-78
2021/09/06 06:22:13;;;;;;;5.32;2.38;;;21.70;47.10;;;;;;5092232;28;20031;-77
2021/09/06 06:24:39;;;;;;;2.97;2.15;;;22.20;43.10;;;;;;5092213;28;20020;-77
2021/09/06 06:27:05;;;;;;;4.93;2.03;;;22.40;42.60;;;;;;5091951;28;20370;-80
2021/09/06 06:29:31;;;;;;;3.75;2.25;;;22.90;41.70;;;;;;5089098;28;20529;-77
2021/09/06 06:31:57;;;;;;;5.35;2.40;;;23.20;41.10;;;;;;5089905;28;20024;-78
2021/09/06 06:34:23;;;;;;;5.25;2.30;;;23.30;40.40;;;;;;5085420;28;20469;-77
2021/09/06 06:36:49;;;;;;;5.20;2.00;;;23.30;39.80;;;;;;5091693;28;20036;-80
2021/09/06 06:39:17;;;;;;;5.30;2.45;;;23.40;40.10;;;;;;5095073;28;20016;-78
2021/09/06 06:41:46;;;;;;;2.90;2.13;;;23.60;39.60;;;;;;5091824;28;20043;-80
2021/09/06 06:44:12;;;;;;;3.88;2.22;;;23.70;40.00;;;;;;5094723;28;20016;-78
2021/09/06 06:46:38;;;;;;;5.05;2.40;;;23.90;38.80;;;;;;5087571;28;20085;-78
2021/09/06 06:49:05;;;;;;;4.00;1.63;;;24.10;37.90;;;;;;5076931;28;20036;-80
2021/09/06 06:51:33;;;;;;;3.78;1.88;;;24.10;36.80;;;;;;5094194;28;20121;-79
2021/09/06 06:53:59;;;;;;;3.05;1.80;;;24.60;36.60;;;;;;5091010;28;20016;-79
2021/09/06 06:56:24;;;;;;;3.60;2.03;;;25.10;35.60;;;;;;5094992;28;20389;-78
2021/09/06 06:58:50;;;;;;;5.55;2.35;;;25.50;35.00;;;;;;5095063;28;20077;-80
2021/09/06 07:01:16;;;;;;;8.75;2.03;;;25.20;34.40;;;;;;5095214;28;20054;-80
2021/09/06 07:03:42;;;;;;;5.00;1.95;;;24.50;33.70;;;;;;5095698;28;20020;-80
2021/09/06 07:06:08;;;;;;;3.00;1.85;;;24.30;34.10;;;;;;5095420;28;20027;-78
2021/09/06 07:08:34;;;;;;;3.47;1.73;;;24.40;34.00;;;;;;5095652;28;20017;-81
2021/09/06 07:11:00;;;;;;;3.00;1.73;;;24.30;34.20;;;;;;5094970;28;20070;-77
2021/09/06 07:13:26;;;;;;;1.98;1.30;;;24.80;34.20;;;;;;5095718;28;20070;-81
2021/09/06 07:15:52;;;;;;;2.78;1.60;;;25.40;33.00;;;;;;5095248;28;20051;-78
2021/09/06 07:18:18;;;;;;;2.08;1.45;;;26.30;32.60;;;;;;5094783;28;20028;-79
2021/09/06 07:20:44;;;;;;;3.80;1.75;;;26.20;31.70;;;;;;5094588;28;20039;-78
2021/09/06 07:23:09;;;;;;;6.22;2.05;;;24.80;32.60;;;;;;5096767;28;20021;-76
2021/09/06 07:25:35;;;;;;;4.28;1.85;;;24.00;33.60;;;;;;5094949;28;20028;-79
2021/09/06 07:28:02;;;;;;;5.30;1.88;;;23.70;34.20;;;;;;5094312;28;20026;-79
2021/09/06 07:30:28;;;;;;;5.82;2.90;;;22.80;34.30;;;;;;5094118;28;20032;-79
2021/09/06 07:32:56;;;;;;;4.25;2.30;;;21.50;35.80;;;;;;5094463;28;20389;-79
2021/09/06 07:35:23;;;;;;;4.07;2.28;;;20.20;38.00;;;;;;5094509;28;20020;-78
2021/09/06 07:37:49;;;;;;;6.72;2.38;;;19.00;40.20;;;;;;5094189;28;20112;-78
2021/09/06 07:40:15;;;;;;;4.57;1.88;;;18.60;41.80;;;;;;5094514;28;20025;-79
2021/09/06 07:42:41;;;;;;;10.60;3.05;;;18.40;41.20;;;;;;5094168;28;20060;-77
2021/09/06 07:45:09;;;;;;;4.60;2.10;;;17.90;41.80;;;;;;5094402;28;20035;-78
2021/09/06 07:47:35;;;;;;;3.30;1.85;;;18.60;42.70;;;;;;5093924;28;20108;-80
2021/09/06 07:50:04;;;;;;;3.58;2.55;;;19.70;40.30;;;;;;5094017;28;20477;-78
2021/09/06 07:52:30;;;;;;;5.50;2.20;;;20.60;38.70;;;;;;5094113;28;20059;-78
2021/09/06 07:54:56;;;;;;;2.55;1.65;;;21.00;37.80;;;;;;5094029;28;20444;-78
2021/09/06 07:57:21;;;;;;;4.75;2.40;;;20.50;37.40;;;;;;5094094;28;20115;-78
2021/09/06 07:59:47;;;;;;;3.45;1.83;;;19.40;38.80;;;;;;5094372;28;20477;-79
2021/09/06 08:02:13;;;;;;;3.05;1.70;;;17.90;38.80;;;;;;5093309;28;20078;-77
2021/09/06 08:04:39;;;;;;;4.47;1.67;;;16.70;41.10;;;;;;5095424;28;20031;-77
2021/09/06 08:07:05;;;;;;;6.35;2.13;;;16.70;42.20;;;;;;5093274;28;20442;-80
2021/09/06 08:09:31;;;;;;;3.75;1.90;;;16.80;42.10;;;;;;5092888;28;20051;-76
2021/09/06 08:11:57;;;;;;;6.32;2.22;;;16.50;42.80;;;;;;5093504;28;20047;-79
2021/09/06 08:14:24;;;;;;;9.77;2.45;;;17.60;42.90;;;;;;5093947;28;20031;-79
2021/09/06 08:16:50;;;;;;;4.50;1.92;;;18.70;40.70;;;;;;5094884;28;20020;-78
2021/09/06 08:19:17;;;;;;;3.92;2.00;;;19.60;39.10;;;;;;5093802;28;20021;-78
2021/09/06 08:21:42;;;;;;;2.75;1.95;;;19.20;38.30;;;;;;5094417;28;20040;-79
2021/09/06 08:24:08;;;;;;;6.63;2.90;;;19.10;39.20;;;;;;5094230;28;20016;-78
2021/09/06 08:26:34;;;;;;;3.35;1.80;;;18.30;39.80;;;;;;5094006;28;20040;-79
2021/09/06 08:29:00;;;;;;;3.70;1.90;;;17.20;41.00;;;;;;5092403;28;20027;-78
2021/09/06 08:31:29;;;;;;;4.80;2.25;;;16.10;41.90;;;;;;5093638;28;20015;-77
2021/09/06 08:33:56;;;;;;;5.80;2.08;;;15.30;44.00;;;;;;5094068;28;20034;-78
2021/09/06 08:36:22;;;;;;;4.68;2.38;;;14.70;45.90;;;;;;5094262;28;20103;-80
2021/09/06 08:38:48;;;;;;;6.03;2.13;;;15.00;48.10;;;;;;5093340;28;20516;-79
2021/09/06 08:41:14;;;;;;;3.97;2.15;;;16.90;46.80;;;;;;5093183;28;20039;-81
2021/09/06 08:43:40;;;;;;;3.30;1.98;;;19.80;42.70;;;;;;5093273;28;20024;-80
2021/09/06 08:46:06;;;;;;;2.50;2.00;;;22.40;37.80;;;;;;5093438;28;20024;-79
2021/09/06 08:48:32;;;;;;;3.20;1.83;;;24.20;34.20;;;;;;5093147;28;20118;-79
2021/09/06 08:50:58;;;;;;;5.78;3.50;;;25.10;32.90;;;;;;5092743;28;20048;-79
2021/09/06 08:53:25;;;;;;;3.38;1.95;;;25.30;30.70;;;;;;5092968;28;20078;-78
2021/09/06 08:55:53;;;;;;;3.47;1.98;;;25.20;31.70;;;;;;5097499;28;20024;-80
2021/09/06 08:58:19;;;;;;;4.40;1.70;;;25.00;30.90;;;;;;5092145;28;20069;-78
2021/09/06 09:00:51;;;;;;;2.80;1.42;;;24.90;31.30;;;;;;5093215;28;20042;-79
2021/09/06 09:03:19;;;;;;;4.28;2.40;;;25.20;31.10;;;;;;5091692;28;20070;-79
2021/09/06 09:06:02;;;;;;;4.60;1.73;;;26.30;30.30;;;;;;5093074;28;20074;-81
2021/09/06 09:08:29;;;;;;;4.22;1.80;;;27.00;29.80;;;;;;5092934;28;20080;-77
2021/09/06 09:11:04;;;;;;;3.75;2.13;;;27.00;29.50;;;;;;5092643;28;20043;-79
2021/09/06 09:13:37;;;;;;;2.85;1.58;;;27.70;29.30;;;;;;5093040;28;20034;-78
2021/09/06 09:16:05;;;;;;;3.70;2.13;;;27.80;28.40;;;;;;5092799;28;20048;-79
2021/09/06 09:18:33;;;;;;;2.53;1.67;;;27.60;27.50;;;;;;5092254;28;20493;-77
2021/09/06 09:21:07;;;;;;;4.05;1.55;;;26.70;28.00;;;;;;5092695;28;20031;-80
2021/09/06 09:23:43;;;;;;;4.68;2.28;;;25.10;28.60;;;;;;5091120;28;20016;-78
2021/09/06 09:26:09;;;;;;;3.30;1.90;;;23.20;30.40;;;;;;5091757;28;20532;-79
2021/09/06 09:28:38;;;;;;;4.90;2.83;;;22.80;31.70;;;;;;5093100;28;20385;-81
2021/09/06 09:31:10;;;;;;;2.42;1.45;;;23.60;32.50;;;;;;5092796;28;20020;-81
2021/09/06 09:33:55;;;;;;;6.55;2.38;;;24.80;30.50;;;;;;5091399;28;20032;-81
2021/09/06 09:36:32;;;;;;;6.50;2.20;;;25.10;30.20;;;;;;5092681;28;20202;-79
2021/09/06 09:39:17;;;;;;;2.95;1.77;;;23.40;30.00;;;;;;5092251;28;20020;-80
2021/09/06 09:42:02;;;;;;;4.15;1.60;;;21.00;32.20;;;;;;5092720;28;20040;-82
2021/09/06 09:44:29;;;;;;;4.55;1.80;;;19.00;35.30;;;;;;5092195;28;20018;-78
2021/09/06 09:47:00;;;;;;;4.32;1.75;;;17.70;38.00;;;;;;5092323;28;20024;-79
2021/09/06 09:49:28;;;;;;;3.25;1.77;;;18.40;38.40;;;;;;5092274;28;20067;-80
2021/09/06 09:51:54;;;;;;;5.85;1.75;;;20.10;37.00;;;;;;5092119;28;20483;-78
2021/09/06 09:54:20;;;;;;;5.80;2.33;;;22.10;34.90;;;;;;5092033;28;20526;-81
2021/09/06 09:56:47;;;;;;;4.63;1.80;;;24.00;32.40;;;;;;5092120;28;20416;-77
2021/09/06 09:59:15;;;;;;;4.18;1.60;;;25.20;30.20;;;;;;5091998;28;20021;-80
2021/09/06 10:01:54;;;;;;;5.55;2.05;;;25.30;29.80;;;;;;5092531;28;20093;-80
2021/09/06 10:04:26;;;;;;;3.00;1.65;;;25.30;30.20;;;;;;5092548;28;20024;-77
2021/09/06 10:06:54;;;;;;;4.40;1.80;;;25.90;30.00;;;;;;5093421;28;20028;-77
2021/09/06 10:09:20;;;;;;;3.63;1.90;;;27.00;29.50;;;;;;5092823;28;20012;-78
2021/09/06 10:11:48;;;;;;;3.80;1.73;;;28.10;28.30;;;;;;5095934;28;20390;-80
2021/09/06 10:14:26;;;;;;;2.28;1.48;;;28.30;27.70;;;;;;5097223;28;20061;-79
2021/09/06 10:17:08;;;;;;;5.53;1.90;;;28.90;27.30;;;;;;5096395;28;20028;-77
2021/09/06 10:19:45;;;;;;;3.60;1.88;;;28.70;27.50;;;;;;5096051;28;20048;-81
2021/09/06 10:22:26;;;;;;;3.15;2.00;;;27.90;27.10;;;;;;5096256;28;20024;-79
2021/09/06 10:25:00;;;;;;;1.98;1.35;;;25.60;28.30;;;;;;5095243;28;20366;-78
2021/09/06 10:27:30;;;;;;;5.28;1.77;;;23.40;30.40;;;;;;5096668;28;20065;-78
2021/09/06 10:30:05;;;;;;;3.03;1.58;;;21.90;31.60;;;;;;5096119;28;20028;-81
2021/09/06 10:32:39;;;;;;;4.25;1.95;;;20.80;32.60;;;;;;5099469;28;20009;-78
2021/09/06 10:35:18;;;;;;;3.35;1.50;;;19.70;34.80;;;;;;5095741;28;20054;-77
2021/09/06 10:37:47;;;;;;;3.55;1.85;;;18.80;36.50;;;;;;5094009;28;20073;-80
2021/09/06 10:40:26;;;;;;;4.28;1.83;;;18.00;38.20;;;;;;5077749;28;20122;-79
2021/09/06 10:42:52;;;;;;;2.95;2.10;;;17.30;39.30;;;;;;5095415;28;20107;-79
2021/09/06 10:45:18;;;;;;;6.18;2.42;;;16.80;41.10;;;;;;5093901;28;20075;-80
2021/09/06 10:47:44;;;;;;;4.05;2.38;;;16.60;42.20;;;;;;5095162;28;20354;-78
2021/09/06 10:50:18;;;;;;;1.98;1.27;;;16.40;41.80;;;;;;5095226;28;20031;-78
2021/09/06 10:52:49;;;;;;;9.48;1.92;;;16.20;40.60;;;;;;5093875;28;20549;-80
2021/09/06 10:55:17;;;;;;;2.58;1.63;;;15.80;42.00;;;;;;5095377;28;20028;-78
2021/09/06 10:57:44;;;;;;;3.13;1.98;;;15.70;42.80;;;;;;5095329;28;20016;-78
2021/09/06 11:00:21;;;;;;;3.70;2.25;;;15.70;42.90;;;;;;5095381;28;20077;-79
2021/09/06 11:02:49;;;;;;;3.63;2.05;;;15.70;42.50;;;;;;5094948;28;20044;-80
2021/09/06 11:05:24;;;;;;;3.40;1.80;;;15.50;42.70;;;;;;5095041;28;20012;-78
2021/09/06 11:08:02;;;;;;;3.13;1.50;;;15.20;43.30;;;;;;5094874;28;20422;-78
2021/09/06 11:10:29;;;;;;;3.33;1.77;;;15.20;44.50;;;;;;5094708;28;20103;-78
2021/09/06 11:12:57;;;;;;;4.70;2.33;;;15.10;43.80;;;;;;5094953;28;20012;-78
2021/09/06 11:15:30;;;;;;;5.55;2.90;;;15.10;44.00;;;;;;5094835;28;20071;-77
2021/09/06 11:18:07;;;;;;;2.78;1.88;;;15.10;44.80;;;;;;5093345;28;20102;-79
2021/09/06 11:20:37;;;;;;;4.05;1.77;;;15.10;44.90;;;;;;5094375;28;20023;-79
2021/09/06 11:23:09;;;;;;;4.50;2.15;;;15.10;44.20;;;;;;5094874;28;20036;-78
2021/09/06 11:25:38;;;;;;;4.38;1.92;;;15.00;43.90;;;;;;5093312;28;20098;-78
2021/09/06 11:28:07;;;;;;;4.88;1.80;;;14.80;44.30;;;;;;5095584;28;20070;-77
2021/09/06 11:30:43;;;;;;;2.17;1.40;;;14.70;43.80;;;;;;5094638;28;20517;-78
2021/09/06 11:33:12;;;;;;;3.33;1.58;;;14.60;42.90;;;;;;5094934;28;20024;-78
2021/09/06 11:35:40;;;;;;;4.75;1.50;;;14.40;42.30;;;;;;5094330;28;20032;-78
2021/09/06 11:38:07;;;;;;;1.98;1.05;;;14.30;42.50;;;;;;5095168;28;20354;-78
2021/09/06 11:40:34;;;;;;;2.67;1.35;;;14.40;43.40;;;;;;5094612;28;20031;-77
2021/09/06 11:43:02;;;;;;;2.70;1.52;;;14.40;43.80;;;;;;5092883;28;20035;-78
2021/09/06 11:45:28;;;;;;;4.35;1.85;;;14.40;44.00;;;;;;5094414;28;20028;-79
2021/09/06 11:48:03;;;;;;;3.03;1.85;;;14.40;44.60;;;;;;5093807;28;20111;-79
2021/09/06 11:50:35;;;;;;;3.95;1.77;;;14.50;44.50;;;;;;5094277;28;20016;-82
2021/09/06 11:53:03;;;;;;;5.07;2.17;;;14.60;44.20;;;;;;5094001;28;20098;-79
2021/09/06 11:55:29;;;;;;;4.70;2.08;;;14.60;44.60;;;;;;5094075;28;20027;-78
2021/09/06 11:58:09;;;;;;;3.83;2.17;;;14.70;44.40;;;;;;5093976;28;20024;-79
2021/09/06 12:00:36;;;;;;;3.72;2.13;;;14.90;44.80;;;;;;5094795;28;20019;-80
2021/09/06 12:03:03;;;;;;;;;;;14.90;44.30;;;;;;5095620;28;20050;-78
2021/09/06 12:05:47;;;;;;;2.70;1.75;;;14.90;44.20;;;;;;5095132;28;19943;-78
2021/09/06 12:08:15;;;;;;;5.10;2.25;;;14.80;44.10;;;;;;5094046;28;20028;-78
2021/09/06 12:10:41;;;;;;;;;;;14.90;45.10;;;;;;5094769;28;20072;-78
2021/09/06 12:13:21;;;;;;;3.13;1.70;;;15.00;44.40;;;;;;5095268;28;19911;-79
2021/09/06 12:15:57;;;;;;;3.05;1.75;;;15.00;43.80;;;;;;5094691;28;20043;-79
2021/09/06 12:18:37;;;;;;;6.53;2.22;;;15.00;44.30;;;;;;5094498;28;20020;-79
2021/09/06 12:21:08;;;;;;;2.20;1.60;;;15.00;44.90;;;;;;5093858;28;20430;-78
2021/09/06 12:23:36;;;;;;;3.25;1.95;;;15.20;44.60;;;;;;5094314;28;20031;-79
2021/09/06 12:26:03;;;;;;;2.67;1.75;;;15.10;44.30;;;;;;5093913;28;20012;-78
2021/09/06 12:28:29;;;;;;;4.15;2.00;;;14.90;44.60;;;;;;5094980;28;20024;-77
2021/09/06 12:31:05;;;;;;;6.07;2.05;;;14.90;45.20;;;;;;5094217;28;20508;-81
2021/09/06 12:33:32;;;;;;;5.67;2.17;;;14.80;46.50;;;;;;5093264;28;20024;-79
2021/09/06 12:36:03;;;;;;;4.93;2.15;;;15.10;46.10;;;;;;5093766;28;20008;-77
2021/09/06 12:38:32;;;;;;;3.75;1.98;;;15.50;45.40;;;;;;5093424;28;20479;-79
2021/09/06 12:41:01;;;;;;;2.30;1.23;;;15.70;44.20;;;;;;5093277;28;20028;-78
2021/09/06 12:43:28;;;;;;;2.97;2.13;;;15.80;43.80;;;;;;5092502;28;20035;-79
2021/09/06 12:45:54;;;;;;;3.60;2.05;;;15.70;43.40;;;;;;5093765;28;20075;-79
2021/09/06 12:48:20;;;;;;;5.45;2.10;;;15.90;43.60;;;;;;5093291;28;20012;-79
2021/09/06 12:50:47;;;;;;;4.97;2.10;;;16.00;43.10;;;;;;5093624;28;20020;-79
2021/09/06 12:53:13;;;;;;;4.90;1.90;;;15.90;44.40;;;;;;5096513;28;20023;-79
2021/09/06 12:55:39;;;;;;;6.90;2.22;;;15.80;43.60;;;;;;5095103;28;20453;-80